createdAt,value
2023-05-15T00:01:51.383Z,10.61
2023-05-15T00:04:19.814Z,10.56
2023-05-15T00:06:48.438Z,10.49
2023-05-15T00:09:16.544Z,10.45
2023-05-15T00:11:44.898Z,10.43
2023-05-15T00:14:13.821Z,10.42
2023-05-15T00:16:42.081Z,10.38
2023-05-15T00:19:10.582Z,10.33
2023-05-15T00:21:39.001Z,10.29
2023-05-15T00:24:07.225Z,10.24
2023-05-15T00:26:36.836Z,10.19
2023-05-15T00:29:03.977Z,10.17
2023-05-15T00:31:33.601Z,10.02
2023-05-15T00:34:00.824Z,9.84
2023-05-15T00:36:29.260Z,9.75
2023-05-15T00:38:57.768Z,9.70
2023-05-15T00:41:28.856Z,9.66
2023-05-15T00:43:58.111Z,9.60
2023-05-15T00:46:30.823Z,9.54
2023-05-15T00:49:03.213Z,9.48
2023-05-15T00:51:33.339Z,9.41
2023-05-15T00:54:04.121Z,9.38
2023-05-15T00:56:35.596Z,9.33
2023-05-15T00:59:07.686Z,9.23
2023-05-15T01:01:37.790Z,9.16
2023-05-15T01:04:07.701Z,9.12
2023-05-15T01:06:38.060Z,9.12
2023-05-15T01:09:10.060Z,9.12
2023-05-15T01:11:42.542Z,9.07
2023-05-15T01:14:12.351Z,9.03
2023-05-15T01:16:42.114Z,8.91
2023-05-15T01:19:12.456Z,8.87
2023-05-15T01:21:57.048Z,8.84
2023-05-15T01:25:43.339Z,8.80
2023-05-15T01:28:22.360Z,8.79
2023-05-15T01:30:56.497Z,8.76
2023-05-15T01:33:33.276Z,8.72
2023-05-15T01:36:24.782Z,8.67
2023-05-15T01:39:01.048Z,8.61
2023-05-15T01:41:54.648Z,8.57
2023-05-15T01:44:54.751Z,8.53
2023-05-15T01:47:40.649Z,8.53
2023-05-15T01:50:14.732Z,8.49
2023-05-15T01:53:00.866Z,8.45
2023-05-15T01:55:31.438Z,8.42
2023-05-15T01:58:02.885Z,8.41
2023-05-15T02:00:34.227Z,8.43
2023-05-15T02:03:02.217Z,8.44
2023-05-15T02:05:31.158Z,8.42
2023-05-15T02:08:04.833Z,8.38
2023-05-15T02:10:36.564Z,8.36
2023-05-15T02:13:09.432Z,8.29
2023-05-15T02:15:39.769Z,8.27
2023-05-15T02:18:09.556Z,8.24
2023-05-15T02:20:39.457Z,8.20
2023-05-15T02:23:09.276Z,8.18
2023-05-15T02:26:01.246Z,8.19
2023-05-15T02:28:55.188Z,8.18
2023-05-15T02:31:51.900Z,8.18
2023-05-15T02:35:13.922Z,8.17
2023-05-15T02:37:49.732Z,8.20
2023-05-15T02:40:24.561Z,8.18
2023-05-15T02:42:57.003Z,8.14
2023-05-15T02:45:28.035Z,8.09
2023-05-15T02:48:00.240Z,8.08
2023-05-15T02:50:31.000Z,8.04
2023-05-15T02:53:09.907Z,8.01
2023-05-15T02:55:39.892Z,7.99
2023-05-15T02:58:10.278Z,7.96
2023-05-15T03:00:40.503Z,7.88
2023-05-15T03:03:10.331Z,7.83
2023-05-15T03:05:40.516Z,7.80
2023-05-15T03:08:10.446Z,7.86
2023-05-15T03:10:40.628Z,7.90
2023-05-15T03:13:10.950Z,7.85
2023-05-15T03:15:40.871Z,7.76
2023-05-15T03:18:11.034Z,7.70
2023-05-15T03:20:40.996Z,7.68
2023-05-15T03:23:11.038Z,7.67
2023-05-15T03:25:40.956Z,7.59
2023-05-15T03:28:11.651Z,7.54
2023-05-15T03:30:45.126Z,7.56
2023-05-15T03:33:15.084Z,7.57
2023-05-15T03:35:45.251Z,7.53
2023-05-15T03:38:15.524Z,7.48
2023-05-15T03:40:45.592Z,7.43
2023-05-15T03:43:16.067Z,7.41
2023-05-15T03:45:45.932Z,7.41
2023-05-15T03:48:15.893Z,7.41
2023-05-15T03:50:47.295Z,7.39
2023-05-15T03:53:16.822Z,7.28
2023-05-15T03:55:46.898Z,7.24
2023-05-15T03:58:16.757Z,7.25
2023-05-15T04:00:47.021Z,7.26
2023-05-15T04:03:15.386Z,7.29
2023-05-15T04:05:44.118Z,7.33
2023-05-15T04:08:12.629Z,7.33
2023-05-15T04:10:40.758Z,7.37
2023-05-15T04:13:09.188Z,7.38
2023-05-15T04:15:38.900Z,7.43
2023-05-15T04:18:06.461Z,7.44
2023-05-15T04:20:35.128Z,7.50
2023-05-15T04:23:05.847Z,7.51
2023-05-15T04:25:33.032Z,7.64
2023-05-15T04:28:01.802Z,7.90
2023-05-15T04:30:29.719Z,8.10
2023-05-15T04:32:58.717Z,8.21
2023-05-15T04:35:27.429Z,8.38
2023-05-15T04:37:55.916Z,8.54
2023-05-15T04:40:24.199Z,8.61
2023-05-15T04:42:52.726Z,8.74
2023-05-15T04:45:21.431Z,8.86
2023-05-15T04:47:49.907Z,8.96
2023-05-15T04:50:17.978Z,9.01
2023-05-15T04:52:46.869Z,9.05
2023-05-15T04:55:15.529Z,9.06
2023-05-15T04:57:43.761Z,9.08
2023-05-15T05:00:14.204Z,9.08
2023-05-15T05:02:44.184Z,9.11
2023-05-15T05:05:14.572Z,9.10
2023-05-15T05:07:46.325Z,9.12
2023-05-15T05:10:16.335Z,9.12
2023-05-15T05:12:46.289Z,9.12
2023-05-15T05:15:16.250Z,9.11
2023-05-15T05:17:46.590Z,9.17
2023-05-15T05:20:16.709Z,9.25
2023-05-15T05:22:46.826Z,9.33
2023-05-15T05:25:15.027Z,9.41
2023-05-15T05:27:43.411Z,9.50
2023-05-15T05:30:12.878Z,9.63
2023-05-15T05:32:40.303Z,9.66
2023-05-15T05:35:09.482Z,9.65
2023-05-15T05:37:39.592Z,9.71
2023-05-15T05:40:10.783Z,9.92
2023-05-15T05:42:37.945Z,10.13
2023-05-15T05:45:07.581Z,10.36
2023-05-15T05:47:35.002Z,10.79
2023-05-15T05:50:03.797Z,11.19
2023-05-15T05:52:31.878Z,11.45
2023-05-15T05:55:00.256Z,11.97
2023-05-15T05:57:29.087Z,12.37
2023-05-15T05:59:57.403Z,12.66
2023-05-15T06:02:26.531Z,12.72
2023-05-15T06:04:54.763Z,12.74
2023-05-15T06:07:23.584Z,12.69
2023-05-15T06:09:51.973Z,12.64
2023-05-15T06:12:22.239Z,12.65
2023-05-15T06:14:52.728Z,12.84
2023-05-15T06:17:22.834Z,13.04
2023-05-15T06:19:52.748Z,13.14
2023-05-15T06:22:23.498Z,13.25
2023-05-15T06:24:53.243Z,13.33
2023-05-15T06:27:26.524Z,13.42
2023-05-15T06:29:56.399Z,13.62
2023-05-15T06:32:25.032Z,13.68
2023-05-15T06:34:53.212Z,13.72
2023-05-15T06:37:21.850Z,13.70
2023-05-15T06:39:50.501Z,13.74
2023-05-15T06:42:18.617Z,13.82
2023-05-15T06:44:47.745Z,13.69
2023-05-15T06:47:16.048Z,13.81
2023-05-15T06:49:43.887Z,14.00
2023-05-15T06:52:12.304Z,14.08
2023-05-15T06:54:41.721Z,14.14
2023-05-15T06:57:09.461Z,14.24
2023-05-15T06:59:37.856Z,14.35
2023-05-15T07:02:06.083Z,14.39
2023-05-15T07:04:34.404Z,14.49
2023-05-15T07:07:02.973Z,14.59
2023-05-15T07:09:31.267Z,14.70
2023-05-15T07:11:59.560Z,14.66
2023-05-15T07:14:28.383Z,14.74
2023-05-15T07:16:56.695Z,14.75
2023-05-15T07:19:25.030Z,15.11
2023-05-15T07:21:53.454Z,15.21
2023-05-15T07:24:21.808Z,15.40
2023-05-15T07:26:58.318Z,15.53
2023-05-15T07:29:28.961Z,15.82
2023-05-15T07:31:58.910Z,16.01
2023-05-15T07:34:28.822Z,16.34
2023-05-15T07:36:58.884Z,16.40
2023-05-15T07:39:28.765Z,16.68
2023-05-15T07:41:58.610Z,16.93
2023-05-15T07:44:28.477Z,17.01
2023-05-15T07:46:59.460Z,16.89
2023-05-15T07:49:29.752Z,16.98
2023-05-15T07:51:59.562Z,16.89
2023-05-15T07:54:31.836Z,16.72
2023-05-15T07:57:02.486Z,16.81
2023-05-15T07:59:32.450Z,16.83
2023-05-15T08:02:03.108Z,16.92
2023-05-15T08:04:33.493Z,17.05
2023-05-15T08:07:03.846Z,17.23
2023-05-15T08:09:34.419Z,17.10
2023-05-15T08:12:22.227Z,17.16
2023-05-15T08:14:54.522Z,17.08
2023-05-15T08:17:25.853Z,17.08
2023-05-15T08:19:56.377Z,17.11
2023-05-15T08:22:26.477Z,17.08
2023-05-15T08:24:56.474Z,17.07
2023-05-15T08:27:27.133Z,17.25
2023-05-15T08:29:56.929Z,17.31
2023-05-15T08:32:27.526Z,17.42
2023-05-15T08:34:58.186Z,17.48
2023-05-15T08:37:28.818Z,17.42
2023-05-15T08:39:58.668Z,17.45
2023-05-15T08:42:48.143Z,17.55
2023-05-15T08:45:20.023Z,17.62
2023-05-15T08:47:49.570Z,17.70
2023-05-15T08:50:19.083Z,17.78
2023-05-15T08:52:47.891Z,17.79
2023-05-15T08:55:16.326Z,17.90
2023-05-15T08:57:45.175Z,17.90
2023-05-15T09:00:15.818Z,17.76
2023-05-15T09:02:43.999Z,17.67
2023-05-15T09:05:12.723Z,17.65
2023-05-15T09:07:44.945Z,17.66
2023-05-15T09:10:16.293Z,17.57
2023-05-15T09:12:46.298Z,17.48
2023-05-15T09:15:22.213Z,17.51
2023-05-15T09:17:53.045Z,17.44
2023-05-15T09:20:29.862Z,17.33
2023-05-15T09:23:03.750Z,17.17
2023-05-15T09:25:44.516Z,17.10
2023-05-15T09:28:33.387Z,17.16
2023-05-15T09:31:05.752Z,17.18
2023-05-15T09:33:38.800Z,17.09
2023-05-15T09:36:09.058Z,17.03
2023-05-15T09:38:43.937Z,17.07
2023-05-15T09:41:11.842Z,17.16
2023-05-15T09:43:41.723Z,17.22
2023-05-15T09:46:14.665Z,17.25
2023-05-15T09:48:45.141Z,17.24
2023-05-15T09:51:20.726Z,17.22
2023-05-15T09:53:54.300Z,17.24
2023-05-15T09:56:25.067Z,17.25
2023-05-15T09:58:56.115Z,17.34
2023-05-15T10:01:27.524Z,17.31
2023-05-15T10:04:01.790Z,17.18
2023-05-15T10:06:40.646Z,17.27
2023-05-15T10:09:11.585Z,17.35
2023-05-15T10:11:43.432Z,17.43
2023-05-15T10:14:15.639Z,17.61
2023-05-15T10:16:45.315Z,17.61
2023-05-15T10:19:14.922Z,17.66
2023-05-15T10:21:45.700Z,17.96
2023-05-15T10:24:19.111Z,18.20
2023-05-15T10:26:49.122Z,18.36
2023-05-15T10:29:21.229Z,18.48
2023-05-15T10:31:51.972Z,18.55
2023-05-15T10:34:21.104Z,18.52
2023-05-15T10:36:51.849Z,18.71
2023-05-15T10:39:22.299Z,18.87
2023-05-15T10:41:53.904Z,18.87
2023-05-15T10:44:23.675Z,19.06
2023-05-15T10:46:55.305Z,19.19
2023-05-15T10:49:25.932Z,19.52
2023-05-15T10:51:56.179Z,19.76
2023-05-15T10:54:23.669Z,19.67
2023-05-15T10:56:56.316Z,19.54
2023-05-15T10:59:32.492Z,19.38
2023-05-15T11:02:23.397Z,19.45
2023-05-15T11:05:03.657Z,19.33
2023-05-15T11:07:31.935Z,19.13
2023-05-15T11:10:00.469Z,19.14
2023-05-15T11:12:57.652Z,19.18
2023-05-15T11:15:40.913Z,18.92
2023-05-15T11:18:11.644Z,18.84
2023-05-15T11:21:02.689Z,19.02
2023-05-15T11:23:41.695Z,19.09
2023-05-15T11:26:13.847Z,18.81
2023-05-15T11:28:45.003Z,18.87
2023-05-15T11:31:15.628Z,18.92
2023-05-15T11:33:52.413Z,18.77
2023-05-15T11:36:24.863Z,18.59
2023-05-15T11:38:54.002Z,18.64
2023-05-15T11:41:22.256Z,18.65
2023-05-15T11:43:50.850Z,18.80
2023-05-15T11:46:18.336Z,18.88
2023-05-15T11:48:50.534Z,18.87
2023-05-15T11:51:25.057Z,19.12
2023-05-15T11:53:58.187Z,19.23
2023-05-15T11:56:28.664Z,19.35
2023-05-15T11:59:02.312Z,19.17
2023-05-15T12:01:44.134Z,19.28
2023-05-15T12:04:16.335Z,19.26
2023-05-15T12:06:49.553Z,19.52
2023-05-15T12:09:21.736Z,19.51
2023-05-15T12:11:56.011Z,19.67
2023-05-15T12:14:30.515Z,19.76
2023-05-15T12:17:04.699Z,19.65
2023-05-15T12:19:38.095Z,20.08
2023-05-15T12:22:08.450Z,20.24
2023-05-15T12:24:39.799Z,20.55
2023-05-15T12:27:09.876Z,20.73
2023-05-15T12:29:41.062Z,20.70
2023-05-15T12:32:11.438Z,20.88
2023-05-15T12:34:41.973Z,20.85
2023-05-15T12:37:15.097Z,20.86
2023-05-15T12:39:53.506Z,21.16
2023-05-15T12:42:24.055Z,20.88
2023-05-15T12:44:56.551Z,20.87
2023-05-15T12:47:28.268Z,20.91
2023-05-15T12:49:58.609Z,20.85
2023-05-15T12:52:29.474Z,20.80
2023-05-15T12:55:02.136Z,20.64
2023-05-15T12:57:31.062Z,20.36
2023-05-15T13:00:01.079Z,20.38
2023-05-15T13:02:31.284Z,20.57
2023-05-15T13:05:04.028Z,20.55
2023-05-15T13:07:34.026Z,20.76
2023-05-15T13:10:08.533Z,20.89
2023-05-15T13:12:43.652Z,21.15
2023-05-15T13:15:30.975Z,21.30
2023-05-15T13:18:03.396Z,21.35
2023-05-15T13:20:36.029Z,21.16
2023-05-15T13:23:04.310Z,20.86
2023-05-15T13:25:32.458Z,20.32
2023-05-15T13:28:06.112Z,20.52
2023-05-15T13:30:35.980Z,21.30
2023-05-15T13:33:04.720Z,21.67
2023-05-15T13:35:33.420Z,21.76
2023-05-15T13:38:02.423Z,21.70
2023-05-15T13:40:37.842Z,21.33
2023-05-15T13:43:07.799Z,21.09
2023-05-15T13:45:37.621Z,21.39
2023-05-15T13:48:07.633Z,21.56
2023-05-15T13:50:37.445Z,21.58
2023-05-15T13:55:47.116Z,21.75
2023-05-15T13:58:17.429Z,21.74
2023-05-15T14:00:48.941Z,21.70
2023-05-15T14:03:18.904Z,20.23
2023-05-15T14:05:48.770Z,19.35
2023-05-15T14:08:18.838Z,18.60
2023-05-15T14:10:48.556Z,17.65
2023-05-15T14:13:18.974Z,17.34
2023-05-15T14:15:48.747Z,17.63
2023-05-15T14:18:18.495Z,17.30
2023-05-15T14:20:48.310Z,17.01
2023-05-15T14:23:19.519Z,16.90
2023-05-15T14:25:49.335Z,16.83
2023-05-15T14:28:19.265Z,16.88
2023-05-15T14:30:49.067Z,16.91
2023-05-15T14:33:18.953Z,16.75
2023-05-15T14:35:48.809Z,16.53
2023-05-15T14:38:19.027Z,16.86
2023-05-15T14:40:49.260Z,16.82
2023-05-15T14:43:19.114Z,16.96
2023-05-15T14:45:49.005Z,16.95
2023-05-15T14:48:20.228Z,17.31
2023-05-15T14:50:51.179Z,17.90
2023-05-15T14:53:21.179Z,18.34
2023-05-15T14:55:51.054Z,18.45
2023-05-15T14:58:21.148Z,18.32
2023-05-15T15:00:49.569Z,18.53
2023-05-15T15:03:19.181Z,18.35
2023-05-15T15:05:46.657Z,18.57
2023-05-15T15:08:15.139Z,18.68
2023-05-15T15:10:43.778Z,18.50
2023-05-15T15:13:14.109Z,19.14
2023-05-15T15:15:44.080Z,18.81
2023-05-15T15:18:13.951Z,18.39
2023-05-15T15:20:44.419Z,18.41
2023-05-15T15:23:14.432Z,18.30
2023-05-15T15:25:44.164Z,18.04
2023-05-15T15:28:13.062Z,18.10
2023-05-15T15:30:42.877Z,18.07
2023-05-15T15:33:12.950Z,17.96
2023-05-15T15:35:42.647Z,17.90
2023-05-15T15:38:13.268Z,17.80
2023-05-15T15:40:40.942Z,17.95
2023-05-15T15:43:09.944Z,18.13
2023-05-15T15:45:38.025Z,18.07
2023-05-15T15:48:06.581Z,18.32
2023-05-15T15:50:36.495Z,18.73
2023-05-15T15:53:06.302Z,19.28
2023-05-15T15:55:36.258Z,19.61
2023-05-15T15:58:06.303Z,19.33
2023-05-15T16:00:37.597Z,18.67
2023-05-15T16:03:07.682Z,18.07
2023-05-15T16:05:38.019Z,17.91
2023-05-15T16:08:07.910Z,17.89
2023-05-15T16:10:37.686Z,17.83
2023-05-15T16:13:07.599Z,17.73
2023-05-15T16:15:37.380Z,17.94
2023-05-15T16:18:07.729Z,17.78
2023-05-15T16:20:38.200Z,17.62
2023-05-15T16:23:09.473Z,17.68
2023-05-15T16:25:39.201Z,17.78
2023-05-15T16:28:09.987Z,17.75
2023-05-15T16:30:48.850Z,17.61
2023-05-15T16:33:19.706Z,17.42
2023-05-15T16:35:48.417Z,17.35
2023-05-15T16:38:17.998Z,17.32
2023-05-15T16:40:46.271Z,17.24
2023-05-15T16:43:14.455Z,17.23
2023-05-15T16:45:42.926Z,17.14
2023-05-15T16:48:12.105Z,17.04
2023-05-15T16:50:41.392Z,16.94
2023-05-15T16:53:10.842Z,16.80
2023-05-15T16:55:38.698Z,16.78
2023-05-15T16:58:08.586Z,16.71
2023-05-15T17:00:36.364Z,16.63
2023-05-15T17:03:07.006Z,16.55
2023-05-15T17:05:34.860Z,16.48
2023-05-15T17:08:02.867Z,16.44
2023-05-15T17:10:32.526Z,16.33
2023-05-15T17:13:00.858Z,16.26
2023-05-15T17:15:30.652Z,16.25
2023-05-15T17:17:58.691Z,16.18
2023-05-15T17:20:28.962Z,16.12
2023-05-15T17:22:58.781Z,16.01
2023-05-15T17:25:28.557Z,15.79
2023-05-15T17:27:58.361Z,15.39
2023-05-15T17:30:28.257Z,15.16
2023-05-15T17:32:59.350Z,15.16
2023-05-15T17:35:32.064Z,15.12
2023-05-15T17:38:02.853Z,15.14
2023-05-15T17:40:32.967Z,14.98
2023-05-15T17:43:03.872Z,14.94
2023-05-15T17:45:33.893Z,14.93
2023-05-15T17:48:04.998Z,14.88
2023-05-15T17:50:38.098Z,14.79
2023-05-15T17:53:07.960Z,14.78
2023-05-15T17:55:37.933Z,14.82
2023-05-15T17:58:07.815Z,14.81
2023-05-15T18:00:37.626Z,14.73
2023-05-15T18:03:08.104Z,14.72
2023-05-15T18:05:38.099Z,14.76
2023-05-15T18:08:08.006Z,14.70
2023-05-15T18:10:38.261Z,14.61
2023-05-15T18:13:08.110Z,14.58
2023-05-15T18:15:38.275Z,14.56
2023-05-15T18:18:08.229Z,14.55
2023-05-15T18:20:38.127Z,14.55
2023-05-15T18:23:08.076Z,14.50
2023-05-15T18:25:37.944Z,14.42
2023-05-15T18:28:07.853Z,14.51
2023-05-15T18:30:37.697Z,14.51
2023-05-15T18:33:07.724Z,14.53
2023-05-15T18:35:38.108Z,14.53
2023-05-15T18:38:08.020Z,14.51
2023-05-15T18:40:37.909Z,14.48
2023-05-15T18:43:08.014Z,14.41
2023-05-15T18:45:38.112Z,14.36
2023-05-15T18:48:08.029Z,14.30
2023-05-15T18:50:39.665Z,14.23
2023-05-15T18:53:09.549Z,14.13
2023-05-15T18:55:39.435Z,14.10
2023-05-15T18:58:09.213Z,14.08
2023-05-15T19:00:39.499Z,14.02
2023-05-15T19:03:09.817Z,13.97
2023-05-15T19:05:39.794Z,13.93
2023-05-15T19:08:09.594Z,13.85
2023-05-15T19:10:39.826Z,13.73
2023-05-15T19:13:09.672Z,13.70
2023-05-15T19:15:39.431Z,13.63
2023-05-15T19:18:09.245Z,13.58
2023-05-15T19:20:39.435Z,13.60
2023-05-15T19:23:09.888Z,13.57
2023-05-15T19:25:39.843Z,13.55
2023-05-15T19:28:08.623Z,13.55
2023-05-15T19:30:37.004Z,13.52
2023-05-15T19:33:05.129Z,13.47
2023-05-15T19:35:35.979Z,13.44
2023-05-15T19:38:05.587Z,13.44
2023-05-15T19:40:35.960Z,13.37
2023-05-15T19:43:05.940Z,13.35
2023-05-15T19:45:35.772Z,13.33
2023-05-15T19:48:06.196Z,13.29
2023-05-15T19:50:39.826Z,13.35
2023-05-15T19:53:11.964Z,13.37
2023-05-15T19:55:42.315Z,13.36
2023-05-15T19:58:12.120Z,13.33
2023-05-15T20:00:42.440Z,13.29
2023-05-15T20:03:12.472Z,13.27
2023-05-15T20:05:42.447Z,13.27
2023-05-15T20:08:14.097Z,13.27
2023-05-15T20:10:44.633Z,13.28
2023-05-15T20:13:14.441Z,13.28
2023-05-15T20:15:44.614Z,13.25
2023-05-15T20:18:17.410Z,13.24
2023-05-15T20:20:47.452Z,13.22
2023-05-15T20:23:17.257Z,13.19
2023-05-15T20:25:49.055Z,13.19
2023-05-15T20:28:18.972Z,13.15
2023-05-15T20:30:48.733Z,13.08
2023-05-15T20:33:19.340Z,13.03
2023-05-15T20:35:51.481Z,12.99
2023-05-15T20:38:25.458Z,12.95
2023-05-15T20:40:56.641Z,12.89
2023-05-15T20:43:26.663Z,12.82
2023-05-15T20:45:57.004Z,12.76
2023-05-15T20:48:26.844Z,12.70
2023-05-15T20:50:56.749Z,12.64
2023-05-15T20:53:28.812Z,12.60
2023-05-15T20:55:59.957Z,12.56
2023-05-15T20:58:29.904Z,12.54
2023-05-15T21:01:01.151Z,12.51
2023-05-15T21:03:31.503Z,12.49
2023-05-15T21:06:02.273Z,12.48
2023-05-15T21:08:32.118Z,12.48
2023-05-15T21:11:02.008Z,12.47
2023-05-15T21:13:30.461Z,12.48
2023-05-15T21:16:00.255Z,12.52
2023-05-15T21:18:30.134Z,12.50
2023-05-15T21:20:58.526Z,12.47
2023-05-15T21:23:27.116Z,12.43
2023-05-15T21:25:55.554Z,12.40
2023-05-15T21:28:23.840Z,12.37
2023-05-15T21:30:52.653Z,12.36
2023-05-15T21:33:20.974Z,12.39
2023-05-15T21:35:49.474Z,12.38
2023-05-15T21:38:19.349Z,12.38
2023-05-15T21:40:49.155Z,12.36
2023-05-15T21:43:17.905Z,12.36
2023-05-15T21:45:46.085Z,12.32
2023-05-15T21:48:15.247Z,12.28
2023-05-15T21:50:42.808Z,12.27
2023-05-15T21:53:12.675Z,12.33
2023-05-15T21:55:42.747Z,12.38
2023-05-15T21:58:09.904Z,12.45
2023-05-15T22:00:40.360Z,12.53
2023-05-15T22:03:10.389Z,12.60
2023-05-15T22:05:40.390Z,12.62
2023-05-15T22:08:08.871Z,12.68
2023-05-15T22:10:37.436Z,12.70
2023-05-15T22:13:06.110Z,12.74
2023-05-15T22:15:35.120Z,12.75
2023-05-15T22:18:05.455Z,12.77
2023-05-15T22:20:34.862Z,12.81
2023-05-15T22:23:02.949Z,12.82
2023-05-15T22:25:32.944Z,12.84
2023-05-15T22:28:03.358Z,12.81
2023-05-15T22:30:33.338Z,12.79
2023-05-15T22:33:03.457Z,12.80
2023-05-15T22:35:33.581Z,12.83
2023-05-15T22:38:04.557Z,12.82
2023-05-15T22:40:34.439Z,12.82
2023-05-15T22:43:05.121Z,12.82
2023-05-15T22:45:34.618Z,12.82
2023-05-15T22:48:05.122Z,12.81
2023-05-15T22:50:36.155Z,12.81
2023-05-15T22:53:06.057Z,12.80
2023-05-15T22:55:36.084Z,12.75
2023-05-15T22:58:05.980Z,12.69
2023-05-15T23:00:35.905Z,12.64
2023-05-15T23:03:05.994Z,12.60
2023-05-15T23:05:36.204Z,12.54
2023-05-15T23:08:06.140Z,12.47
2023-05-15T23:10:36.032Z,12.44
2023-05-15T23:13:06.176Z,12.42
2023-05-15T23:15:36.191Z,12.40
2023-05-15T23:18:06.679Z,12.37
2023-05-15T23:20:36.507Z,12.39
2023-05-15T23:23:06.992Z,12.39
2023-05-15T23:25:37.026Z,12.35
2023-05-15T23:28:07.022Z,12.34
2023-05-15T23:30:35.494Z,12.31
2023-05-15T23:33:03.929Z,12.27
2023-05-15T23:35:33.211Z,12.23
2023-05-15T23:38:00.713Z,12.20
2023-05-15T23:40:29.700Z,12.17
2023-05-15T23:42:58.205Z,12.10
2023-05-15T23:45:26.534Z,12.06
2023-05-15T23:47:54.697Z,12.02
2023-05-15T23:50:23.197Z,11.91
2023-05-15T23:52:51.731Z,11.83
2023-05-15T23:55:20.070Z,11.76
2023-05-15T23:57:48.476Z,11.74
